Fair Oaks, Arkansas
Current Conditions -  °F | °C
As of 8:23 PM on Thursday 20 Nov 2014 (Local Time) from KM19 Reporting Station
Haze Haze  
Wind Chill: 38°   Ceiling: 3800
Heat Index: 43°   Visibility: 1.5mi
Dew Point: 30°   Wind: 8mph
Humidity: 61%   Direction: 50°NE
Pressure: 30.24"   Gusts: NA
Location:  35.2139°N, 91.1509°W
Report Text: KM19 210223Z AUTO 05007KT 1 1/2SM HZ OVC038 06/M01 A3024 RMK AO2
Loading
Personal Weather Stations






























Interactive Weather Map New forecast layout! Learn more

10-Day Weather Forecast

Advertisements
Track Severe Weather on mobile